sensor_id;sensor_type;location;lat;lon;timestamp;pressure;altitude;pressure_sealevel;temperature;humidity
13027;BME280;6580;42.680;23.324;2023-04-26T00:00:46;94370.84;;;10.87;100.00
13027;BME280;6580;42.680;23.324;2023-04-26T00:03:32;94356.81;;;10.93;100.00
13027;BME280;6580;42.680;23.324;2023-04-26T00:06:20;94363.44;;;10.97;100.00
13027;BME280;6580;42.680;23.324;2023-04-26T00:09:06;94354.53;;;11.05;100.00
13027;BME280;6580;42.680;23.324;2023-04-26T00:11:54;94354.19;;;11.08;100.00
13027;BME280;6580;42.680;23.324;2023-04-26T00:14:41;94343.97;;;11.11;100.00
13027;BME280;6580;42.680;23.324;2023-04-26T00:17:26;94337.59;;;10.83;100.00
13027;BME280;6580;42.680;23.324;2023-04-26T00:20:12;94340.00;;;10.93;100.00
13027;BME280;6580;42.680;23.324;2023-04-26T00:22:59;94341.81;;;10.78;100.00
13027;BME280;6580;42.680;23.324;2023-04-26T00:25:44;94348.13;;;10.77;100.00
13027;BME280;6580;42.680;23.324;2023-04-26T00:28:29;94351.28;;;10.58;100.00
13027;BME280;6580;42.680;23.324;2023-04-26T00:31:18;94344.50;;;10.55;100.00
13027;BME280;6580;42.680;23.324;2023-04-26T00:34:05;94340.28;;;10.61;100.00
13027;BME280;6580;42.680;23.324;2023-04-26T00:36:51;94331.75;;;10.51;100.00
13027;BME280;6580;42.680;23.324;2023-04-26T00:39:37;94305.88;;;10.59;100.00
13027;BME280;6580;42.680;23.324;2023-04-26T00:42:23;94324.16;;;10.77;100.00
13027;BME280;6580;42.680;23.324;2023-04-26T00:45:12;94329.66;;;10.61;100.00
13027;BME280;6580;42.680;23.324;2023-04-26T00:48:00;94328.06;;;10.52;100.00
13027;BME280;6580;42.680;23.324;2023-04-26T00:50:46;94331.22;;;10.33;100.00
13027;BME280;6580;42.680;23.324;2023-04-26T00:53:34;94332.69;;;10.35;100.00
13027;BME280;6580;42.680;23.324;2023-04-26T00:56:21;94342.22;;;10.30;100.00
13027;BME280;6580;42.680;23.324;2023-04-26T00:59:09;94343.53;;;10.34;100.00
13027;BME280;6580;42.680;23.324;2023-04-26T01:01:54;94341.88;;;10.33;100.00
13027;BME280;6580;42.680;23.324;2023-04-26T01:04:47;94342.34;;;10.36;100.00
13027;BME280;6580;42.680;23.324;2023-04-26T01:07:33;94345.34;;;10.11;100.00
13027;BME280;6580;42.680;23.324;2023-04-26T01:10:20;94349.97;;;10.17;100.00
13027;BME280;6580;42.680;23.324;2023-04-26T01:13:07;94359.84;;;10.31;100.00
13027;BME280;6580;42.680;23.324;2023-04-26T01:15:55;94352.78;;;10.15;100.00
13027;BME280;6580;42.680;23.324;2023-04-26T01:18:41;94347.00;;;10.12;100.00
13027;BME280;6580;42.680;23.324;2023-04-26T01:21:29;94338.91;;;10.06;100.00
13027;BME280;6580;42.680;23.324;2023-04-26T01:24:18;94339.09;;;9.96;100.00
13027;BME280;6580;42.680;23.324;2023-04-26T01:27:06;94329.25;;;9.74;100.00
13027;BME280;6580;42.680;23.324;2023-04-26T01:29:55;94334.22;;;9.77;100.00
13027;BME280;6580;42.680;23.324;2023-04-26T01:32:40;94336.00;;;9.85;100.00
13027;BME280;6580;42.680;23.324;2023-04-26T01:35:27;94338.59;;;9.93;100.00
13027;BME280;6580;42.680;23.324;2023-04-26T01:38:16;94344.72;;;9.71;100.00
13027;BME280;6580;42.680;23.324;2023-04-26T01:41:05;94343.97;;;9.85;100.00
13027;BME280;6580;42.680;23.324;2023-04-26T01:43:51;94338.78;;;9.99;100.00
13027;BME280;6580;42.680;23.324;2023-04-26T01:46:39;94339.44;;;9.93;100.00
13027;BME280;6580;42.680;23.324;2023-04-26T01:49:27;94350.88;;;9.71;100.00
13027;BME280;6580;42.680;23.324;2023-04-26T01:52:17;94359.69;;;10.02;100.00
13027;BME280;6580;42.680;23.324;2023-04-26T01:55:03;94339.25;;;9.95;100.00
13027;BME280;6580;42.680;23.324;2023-04-26T01:57:51;94345.00;;;9.76;100.00
13027;BME280;6580;42.680;23.324;2023-04-26T02:00:39;94344.00;;;9.77;100.00
13027;BME280;6580;42.680;23.324;2023-04-26T02:03:29;94327.16;;;9.92;100.00
13027;BME280;6580;42.680;23.324;2023-04-26T02:06:18;94330.81;;;9.91;100.00
13027;BME280;6580;42.680;23.324;2023-04-26T02:09:04;94320.81;;;9.93;100.00
13027;BME280;6580;42.680;23.324;2023-04-26T02:11:52;94319.97;;;10.01;100.00
13027;BME280;6580;42.680;23.324;2023-04-26T02:14:43;94334.13;;;9.93;100.00
13027;BME280;6580;42.680;23.324;2023-04-26T02:17:29;94319.97;;;10.01;100.00
13027;BME280;6580;42.680;23.324;2023-04-26T02:20:16;94310.50;;;9.98;100.00
13027;BME280;6580;42.680;23.324;2023-04-26T02:23:06;94315.31;;;9.95;100.00
13027;BME280;6580;42.680;23.324;2023-04-26T02:25:51;94314.25;;;9.81;100.00
13027;BME280;6580;42.680;23.324;2023-04-26T02:28:38;94320.31;;;9.67;100.00
13027;BME280;6580;42.680;23.324;2023-04-26T02:31:25;94320.91;;;9.55;100.00
13027;BME280;6580;42.680;23.324;2023-04-26T02:34:11;94314.84;;;9.69;100.00
13027;BME280;6580;42.680;23.324;2023-04-26T02:36:59;94321.97;;;9.68;100.00
13027;BME280;6580;42.680;23.324;2023-04-26T02:39:48;94322.28;;;9.96;100.00
13027;BME280;6580;42.680;23.324;2023-04-26T02:42:35;94313.66;;;9.94;100.00
13027;BME280;6580;42.680;23.324;2023-04-26T02:45:20;94320.16;;;9.91;100.00
13027;BME280;6580;42.680;23.324;2023-04-26T02:48:11;94319.78;;;10.02;100.00
13027;BME280;6580;42.680;23.324;2023-04-26T02:50:58;94322.94;;;10.06;100.00
13027;BME280;6580;42.680;23.324;2023-04-26T02:53:44;94301.56;;;9.99;100.00
13027;BME280;6580;42.680;23.324;2023-04-26T02:56:30;94304.03;;;10.01;100.00
13027;BME280;6580;42.680;23.324;2023-04-26T02:59:15;94303.81;;;10.02;100.00
13027;BME280;6580;42.680;23.324;2023-04-26T03:02:01;94308.53;;;10.00;100.00
13027;BME280;6580;42.680;23.324;2023-04-26T03:04:48;94307.63;;;10.08;100.00
13027;BME280;6580;42.680;23.324;2023-04-26T03:07:34;94302.78;;;10.11;100.00
13027;BME280;6580;42.680;23.324;2023-04-26T03:10:21;94303.97;;;10.09;100.00
13027;BME280;6580;42.680;23.324;2023-04-26T03:13:09;94305.44;;;10.11;100.00
13027;BME280;6580;42.680;23.324;2023-04-26T03:15:55;94309.16;;;10.02;100.00
13027;BME280;6580;42.680;23.324;2023-04-26T03:18:43;94298.69;;;10.01;100.00
13027;BME280;6580;42.680;23.324;2023-04-26T03:21:30;94298.34;;;10.04;100.00
13027;BME280;6580;42.680;23.324;2023-04-26T03:24:16;94295.03;;;10.02;100.00
13027;BME280;6580;42.680;23.324;2023-04-26T03:27:03;94301.44;;;9.85;100.00
13027;BME280;6580;42.680;23.324;2023-04-26T03:29:50;94295.25;;;9.92;100.00
13027;BME280;6580;42.680;23.324;2023-04-26T03:32:36;94289.84;;;10.08;100.00
13027;BME280;6580;42.680;23.324;2023-04-26T03:35:21;94299.41;;;10.17;100.00
13027;BME280;6580;42.680;23.324;2023-04-26T03:38:10;94295.63;;;10.11;100.00
13027;BME280;6580;42.680;23.324;2023-04-26T03:40:57;94293.16;;;10.10;100.00
13027;BME280;6580;42.680;23.324;2023-04-26T03:43:42;94287.63;;;10.11;100.00
13027;BME280;6580;42.680;23.324;2023-04-26T03:46:28;94307.41;;;10.17;100.00
13027;BME280;6580;42.680;23.324;2023-04-26T03:49:13;94309.69;;;10.20;100.00
13027;BME280;6580;42.680;23.324;2023-04-26T03:51:59;94309.94;;;10.33;100.00
13027;BME280;6580;42.680;23.324;2023-04-26T03:54:46;94300.03;;;10.41;100.00
13027;BME280;6580;42.680;23.324;2023-04-26T03:57:31;94306.69;;;10.60;100.00
13027;BME280;6580;42.680;23.324;2023-04-26T04:00:17;94307.28;;;10.70;100.00
13027;BME280;6580;42.680;23.324;2023-04-26T04:03:02;94307.75;;;10.88;100.00
13027;BME280;6580;42.680;23.324;2023-04-26T04:05:47;94290.84;;;10.81;100.00
13027;BME280;6580;42.680;23.324;2023-04-26T04:08:33;94312.38;;;11.08;100.00
13027;BME280;6580;42.680;23.324;2023-04-26T04:11:21;94306.94;;;11.02;100.00
13027;BME280;6580;42.680;23.324;2023-04-26T04:14:07;94317.53;;;11.10;100.00
13027;BME280;6580;42.680;23.324;2023-04-26T04:16:52;94310.59;;;10.86;100.00
13027;BME280;6580;42.680;23.324;2023-04-26T04:19:42;94315.13;;;11.00;100.00
13027;BME280;6580;42.680;23.324;2023-04-26T04:22:29;94314.88;;;11.10;100.00
13027;BME280;6580;42.680;23.324;2023-04-26T04:25:16;94317.13;;;11.12;100.00
13027;BME280;6580;42.680;23.324;2023-04-26T04:28:05;94317.34;;;11.25;100.00
13027;BME280;6580;42.680;23.324;2023-04-26T04:30:51;94307.78;;;11.31;100.00
13027;BME280;6580;42.680;23.324;2023-04-26T04:33:37;94317.06;;;11.20;100.00
13027;BME280;6580;42.680;23.324;2023-04-26T04:36:23;94318.59;;;11.29;100.00
13027;BME280;6580;42.680;23.324;2023-04-26T04:39:10;94323.56;;;11.47;100.00
13027;BME280;6580;42.680;23.324;2023-04-26T04:42:01;94327.06;;;11.47;100.00
13027;BME280;6580;42.680;23.324;2023-04-26T04:44:55;94334.91;;;11.63;100.00
13027;BME280;6580;42.680;23.324;2023-04-26T04:47:43;94327.06;;;11.76;100.00
13027;BME280;6580;42.680;23.324;2023-04-26T04:50:30;94321.09;;;11.74;100.00
13027;BME280;6580;42.680;23.324;2023-04-26T04:53:15;94328.81;;;11.84;100.00
13027;BME280;6580;42.680;23.324;2023-04-26T04:56:04;94324.28;;;11.84;100.00
13027;BME280;6580;42.680;23.324;2023-04-26T04:58:53;94321.25;;;11.87;100.00
13027;BME280;6580;42.680;23.324;2023-04-26T05:01:42;94326.09;;;11.98;100.00
13027;BME280;6580;42.680;23.324;2023-04-26T05:04:34;94323.44;;;11.98;100.00
13027;BME280;6580;42.680;23.324;2023-04-26T05:07:24;94325.69;;;12.01;100.00
13027;BME280;6580;42.680;23.324;2023-04-26T05:10:16;94329.31;;;11.94;100.00
13027;BME280;6580;42.680;23.324;2023-04-26T05:13:04;94329.56;;;12.13;100.00
13027;BME280;6580;42.680;23.324;2023-04-26T05:15:51;94322.13;;;12.29;100.00
13027;BME280;6580;42.680;23.324;2023-04-26T05:18:44;94323.59;;;12.32;100.00
13027;BME280;6580;42.680;23.324;2023-04-26T05:21:31;94323.97;;;12.29;100.00
13027;BME280;6580;42.680;23.324;2023-04-26T05:24:18;94325.84;;;12.77;100.00
13027;BME280;6580;42.680;23.324;2023-04-26T05:27:03;94284.56;;;12.52;100.00
13027;BME280;6580;42.680;23.324;2023-04-26T05:29:48;94315.75;;;12.93;100.00
13027;BME280;6580;42.680;23.324;2023-04-26T05:32:34;94323.38;;;13.23;100.00
13027;BME280;6580;42.680;23.324;2023-04-26T05:35:24;94318.56;;;13.13;100.00
13027;BME280;6580;42.680;23.324;2023-04-26T05:38:10;94321.03;;;13.41;100.00
13027;BME280;6580;42.680;23.324;2023-04-26T05:40:56;94326.47;;;14.01;100.00
13027;BME280;6580;42.680;23.324;2023-04-26T05:43:42;94342.41;;;14.16;98.93
13027;BME280;6580;42.680;23.324;2023-04-26T05:46:29;94335.59;;;14.13;97.00
13027;BME280;6580;42.680;23.324;2023-04-26T05:49:15;94335.00;;;14.18;96.40
13027;BME280;6580;42.680;23.324;2023-04-26T05:52:01;94329.28;;;14.40;95.05
13027;BME280;6580;42.680;23.324;2023-04-26T05:54:47;94335.84;;;14.24;93.26
13027;BME280;6580;42.680;23.324;2023-04-26T05:57:33;94337.06;;;14.22;96.74
13027;BME280;6580;42.680;23.324;2023-04-26T06:00:19;94336.03;;;14.23;93.55
13027;BME280;6580;42.680;23.324;2023-04-26T06:03:06;94311.59;;;13.92;94.23
13027;BME280;6580;42.680;23.324;2023-04-26T06:05:51;94326.75;;;13.72;94.34
13027;BME280;6580;42.680;23.324;2023-04-26T06:08:38;94336.44;;;13.73;95.82
13027;BME280;6580;42.680;23.324;2023-04-26T06:11:24;94341.19;;;13.78;95.45
13027;BME280;6580;42.680;23.324;2023-04-26T06:14:09;94335.88;;;14.31;93.11
13027;BME280;6580;42.680;23.324;2023-04-26T06:16:55;94332.69;;;15.13;88.79
13027;BME280;6580;42.680;23.324;2023-04-26T06:19:41;94334.72;;;15.18;88.04
13027;BME280;6580;42.680;23.324;2023-04-26T06:22:26;94322.75;;;15.20;88.37
13027;BME280;6580;42.680;23.324;2023-04-26T06:25:13;94332.91;;;15.31;84.99
13027;BME280;6580;42.680;23.324;2023-04-26T06:27:59;94340.06;;;15.69;85.88
13027;BME280;6580;42.680;23.324;2023-04-26T06:30:44;94326.03;;;16.37;82.64
13027;BME280;6580;42.680;23.324;2023-04-26T06:33:29;94332.88;;;16.64;78.92
13027;BME280;6580;42.680;23.324;2023-04-26T06:36:15;94327.63;;;16.38;78.92
13027;BME280;6580;42.680;23.324;2023-04-26T06:39:01;94330.84;;;15.39;81.54
13027;BME280;6580;42.680;23.324;2023-04-26T06:41:49;94329.78;;;15.08;82.33
13027;BME280;6580;42.680;23.324;2023-04-26T06:44:34;94340.63;;;14.48;87.24
13027;BME280;6580;42.680;23.324;2023-04-26T06:47:19;94332.66;;;14.55;80.91
13027;BME280;6580;42.680;23.324;2023-04-26T06:50:07;94353.63;;;14.51;79.01
13027;BME280;6580;42.680;23.324;2023-04-26T06:52:53;94342.16;;;14.96;73.44
13027;BME280;6580;42.680;23.324;2023-04-26T06:55:39;94350.63;;;16.21;70.08
13027;BME280;6580;42.680;23.324;2023-04-26T06:58:25;94335.78;;;17.48;65.89
13027;BME280;6580;42.680;23.324;2023-04-26T07:01:11;94332.81;;;19.23;55.05
13027;BME280;6580;42.680;23.324;2023-04-26T07:03:56;94324.63;;;19.41;54.20
13027;BME280;6580;42.680;23.324;2023-04-26T07:06:42;94337.59;;;17.54;60.44
13027;BME280;6580;42.680;23.324;2023-04-26T07:09:27;94339.28;;;17.73;59.31
13027;BME280;6580;42.680;23.324;2023-04-26T07:12:13;94332.19;;;17.06;58.85
13027;BME280;6580;42.680;23.324;2023-04-26T07:15:00;94337.63;;;17.72;59.33
13027;BME280;6580;42.680;23.324;2023-04-26T07:17:46;94335.66;;;17.61;59.49
13027;BME280;6580;42.680;23.324;2023-04-26T07:20:32;94346.31;;;17.74;60.14
13027;BME280;6580;42.680;23.324;2023-04-26T07:23:17;94343.31;;;18.25;56.73
13027;BME280;6580;42.680;23.324;2023-04-26T07:26:03;94339.41;;;18.68;55.97
13027;BME280;6580;42.680;23.324;2023-04-26T07:28:49;94335.72;;;17.97;56.13
13027;BME280;6580;42.680;23.324;2023-04-26T07:31:36;94336.00;;;17.47;57.27
13027;BME280;6580;42.680;23.324;2023-04-26T07:34:21;94342.56;;;16.71;59.61
13027;BME280;6580;42.680;23.324;2023-04-26T07:37:07;94345.19;;;16.78;59.22
13027;BME280;6580;42.680;23.324;2023-04-26T07:39:52;94353.53;;;17.25;57.30
13027;BME280;6580;42.680;23.324;2023-04-26T07:42:38;94362.19;;;16.28;58.66
13027;BME280;6580;42.680;23.324;2023-04-26T07:45:24;94362.72;;;15.86;59.94
13027;BME280;6580;42.680;23.324;2023-04-26T07:48:11;94365.41;;;16.56;59.19
13027;BME280;6580;42.680;23.324;2023-04-26T07:51:06;94362.56;;;16.38;59.69
13027;BME280;6580;42.680;23.324;2023-04-26T07:53:52;94380.47;;;15.94;57.33
13027;BME280;6580;42.680;23.324;2023-04-26T07:56:38;94375.47;;;16.10;56.19
13027;BME280;6580;42.680;23.324;2023-04-26T07:59:24;94362.88;;;16.61;54.13
13027;BME280;6580;42.680;23.324;2023-04-26T08:02:09;94370.53;;;16.95;54.27
13027;BME280;6580;42.680;23.324;2023-04-26T08:04:56;94361.25;;;17.70;53.31
13027;BME280;6580;42.680;23.324;2023-04-26T08:07:42;94361.50;;;17.44;52.37
13027;BME280;6580;42.680;23.324;2023-04-26T08:10:27;94332.06;;;17.19;53.43
13027;BME280;6580;42.680;23.324;2023-04-26T08:13:14;94372.19;;;16.96;52.56
13027;BME280;6580;42.680;23.324;2023-04-26T08:16:00;94362.59;;;17.61;51.70
13027;BME280;6580;42.680;23.324;2023-04-26T08:18:45;94363.34;;;18.46;48.88
13027;BME280;6580;42.680;23.324;2023-04-26T08:21:34;94352.59;;;18.58;49.30
13027;BME280;6580;42.680;23.324;2023-04-26T08:24:20;94358.72;;;19.87;46.89
13027;BME280;6580;42.680;23.324;2023-04-26T08:27:08;94356.63;;;20.63;43.78
13027;BME280;6580;42.680;23.324;2023-04-26T08:29:54;94361.09;;;20.18;45.08
13027;BME280;6580;42.680;23.324;2023-04-26T08:32:40;94344.13;;;19.88;43.57
13027;BME280;6580;42.680;23.324;2023-04-26T08:35:27;94365.41;;;18.80;47.41
13027;BME280;6580;42.680;23.324;2023-04-26T08:38:17;94358.94;;;18.34;48.81
13027;BME280;6580;42.680;23.324;2023-04-26T08:41:05;94354.94;;;17.10;51.23
13027;BME280;6580;42.680;23.324;2023-04-26T08:43:55;94358.41;;;16.86;54.08
13027;BME280;6580;42.680;23.324;2023-04-26T08:46:49;94359.91;;;18.39;49.39
13027;BME280;6580;42.680;23.324;2023-04-26T08:49:39;94366.91;;;17.44;49.89
13027;BME280;6580;42.680;23.324;2023-04-26T08:52:29;94368.09;;;16.56;52.56
13027;BME280;6580;42.680;23.324;2023-04-26T08:55:17;94336.28;;;17.08;53.90
13027;BME280;6580;42.680;23.324;2023-04-26T08:58:06;94358.16;;;18.09;50.13
13027;BME280;6580;42.680;23.324;2023-04-26T09:00:52;94365.41;;;17.91;49.31
13027;BME280;6580;42.680;23.324;2023-04-26T09:03:38;94362.28;;;17.69;49.43
13027;BME280;6580;42.680;23.324;2023-04-26T09:06:26;94365.78;;;17.94;50.14
13027;BME280;6580;42.680;23.324;2023-04-26T09:09:14;94349.25;;;18.09;49.16
13027;BME280;6580;42.680;23.324;2023-04-26T09:12:05;94361.25;;;17.22;49.84
13027;BME280;6580;42.680;23.324;2023-04-26T09:14:50;94364.09;;;17.33;49.67
13027;BME280;6580;42.680;23.324;2023-04-26T09:17:37;94376.66;;;17.08;50.56
13027;BME280;6580;42.680;23.324;2023-04-26T09:20:25;94365.69;;;18.25;49.14
13027;BME280;6580;42.680;23.324;2023-04-26T09:23:11;94365.84;;;19.07;45.65
13027;BME280;6580;42.680;23.324;2023-04-26T09:26:14;94368.56;;;18.59;47.07
13027;BME280;6580;42.680;23.324;2023-04-26T09:29:13;94361.00;;;18.97;45.81
13027;BME280;6580;42.680;23.324;2023-04-26T09:31:58;94366.56;;;18.55;45.68
13027;BME280;6580;42.680;23.324;2023-04-26T09:34:45;94363.38;;;18.04;46.52
13027;BME280;6580;42.680;23.324;2023-04-26T09:37:30;94364.78;;;18.49;47.09
13027;BME280;6580;42.680;23.324;2023-04-26T09:40:17;94367.13;;;18.57;45.79
13027;BME280;6580;42.680;23.324;2023-04-26T09:43:05;94361.66;;;18.81;44.80
13027;BME280;6580;42.680;23.324;2023-04-26T09:45:53;94357.06;;;19.75;43.13
13027;BME280;6580;42.680;23.324;2023-04-26T09:48:40;94359.09;;;20.02;42.10
13027;BME280;6580;42.680;23.324;2023-04-26T09:51:26;94367.09;;;19.34;43.14
13027;BME280;6580;42.680;23.324;2023-04-26T09:54:13;94352.41;;;18.89;43.85
13027;BME280;6580;42.680;23.324;2023-04-26T09:56:58;94348.97;;;19.63;42.79
13027;BME280;6580;42.680;23.324;2023-04-26T09:59:46;94351.44;;;20.22;40.83
13027;BME280;6580;42.680;23.324;2023-04-26T10:02:34;94347.13;;;20.10;41.07
13027;BME280;6580;42.680;23.324;2023-04-26T10:05:21;94331.91;;;19.51;42.76
13027;BME280;6580;42.680;23.324;2023-04-26T10:08:07;94351.78;;;19.91;40.66
13027;BME280;6580;42.680;23.324;2023-04-26T10:10:53;94344.81;;;19.49;41.05
13027;BME280;6580;42.680;23.324;2023-04-26T10:13:41;94347.47;;;20.02;40.82
13027;BME280;6580;42.680;23.324;2023-04-26T10:16:29;94346.28;;;20.09;39.66
13027;BME280;6580;42.680;23.324;2023-04-26T10:19:18;94341.34;;;20.57;38.50
13027;BME280;6580;42.680;23.324;2023-04-26T10:22:08;94337.94;;;20.61;38.03
13027;BME280;6580;42.680;23.324;2023-04-26T10:24:54;94338.22;;;18.64;39.21
13027;BME280;6580;42.680;23.324;2023-04-26T10:27:50;94341.97;;;18.63;40.83
13027;BME280;6580;42.680;23.324;2023-04-26T10:30:54;94348.28;;;18.39;41.87
13027;BME280;6580;42.680;23.324;2023-04-26T10:33:40;94341.72;;;18.94;40.43
13027;BME280;6580;42.680;23.324;2023-04-26T10:39:45;94330.38;;;19.03;40.62
13027;BME280;6580;42.680;23.324;2023-04-26T10:42:31;94333.00;;;20.08;38.47
13027;BME280;6580;42.680;23.324;2023-04-26T10:45:25;94342.88;;;19.79;38.40
13027;BME280;6580;42.680;23.324;2023-04-26T10:48:16;94332.81;;;19.23;39.28
13027;BME280;6580;42.680;23.324;2023-04-26T10:51:08;94331.31;;;19.27;38.28
13027;BME280;6580;42.680;23.324;2023-04-26T10:53:59;94319.84;;;19.54;38.74
13027;BME280;6580;42.680;23.324;2023-04-26T10:56:50;94328.03;;;19.59;38.03
13027;BME280;6580;42.680;23.324;2023-04-26T10:59:36;94335.84;;;18.56;39.24
13027;BME280;6580;42.680;23.324;2023-04-26T11:02:44;94329.75;;;19.31;39.66
13027;BME280;6580;42.680;23.324;2023-04-26T11:05:37;94325.69;;;19.51;37.52
13027;BME280;6580;42.680;23.324;2023-04-26T11:08:27;94316.41;;;19.47;38.25
13027;BME280;6580;42.680;23.324;2023-04-26T11:11:17;94335.53;;;18.64;39.53
13027;BME280;6580;42.680;23.324;2023-04-26T11:14:08;94334.53;;;18.29;39.38
13027;BME280;6580;42.680;23.324;2023-04-26T11:16:58;94326.19;;;17.28;39.51
13027;BME280;6580;42.680;23.324;2023-04-26T11:19:45;94334.09;;;17.54;40.54
13027;BME280;6580;42.680;23.324;2023-04-26T11:22:31;94328.50;;;19.04;38.05
13027;BME280;6580;42.680;23.324;2023-04-26T11:25:17;94328.75;;;19.89;37.49
13027;BME280;6580;42.680;23.324;2023-04-26T11:28:04;94331.81;;;20.15;36.58
13027;BME280;6580;42.680;23.324;2023-04-26T11:30:50;94329.59;;;19.55;36.70
13027;BME280;6580;42.680;23.324;2023-04-26T11:33:35;94327.22;;;19.47;36.71
13027;BME280;6580;42.680;23.324;2023-04-26T11:36:21;94344.44;;;18.94;37.60
13027;BME280;6580;42.680;23.324;2023-04-26T11:39:07;94335.66;;;19.39;36.73
13027;BME280;6580;42.680;23.324;2023-04-26T11:41:55;94330.34;;;19.33;36.10
13027;BME280;6580;42.680;23.324;2023-04-26T11:44:50;94332.34;;;19.26;37.03
13027;BME280;6580;42.680;23.324;2023-04-26T11:47:37;94327.19;;;19.24;37.75
13027;BME280;6580;42.680;23.324;2023-04-26T11:50:24;94342.13;;;18.68;37.47
13027;BME280;6580;42.680;23.324;2023-04-26T11:53:11;94334.94;;;18.62;37.15
13027;BME280;6580;42.680;23.324;2023-04-26T11:55:59;94326.75;;;19.09;37.22
13027;BME280;6580;42.680;23.324;2023-04-26T11:58:45;94316.88;;;20.63;35.09
13027;BME280;6580;42.680;23.324;2023-04-26T12:01:32;94320.09;;;20.77;34.67
13027;BME280;6580;42.680;23.324;2023-04-26T12:04:26;94318.03;;;21.23;32.93
13027;BME280;6580;42.680;23.324;2023-04-26T12:07:17;94316.31;;;20.61;33.78
13027;BME280;6580;42.680;23.324;2023-04-26T12:10:16;94320.31;;;20.47;34.82
13027;BME280;6580;42.680;23.324;2023-04-26T12:13:03;94319.22;;;20.60;35.34
13027;BME280;6580;42.680;23.324;2023-04-26T12:15:48;94313.19;;;20.81;35.02
13027;BME280;6580;42.680;23.324;2023-04-26T12:18:36;94319.59;;;21.19;34.07
13027;BME280;6580;42.680;23.324;2023-04-26T12:21:22;94307.81;;;21.74;33.53
13027;BME280;6580;42.680;23.324;2023-04-26T12:24:21;94314.53;;;19.47;36.16
13027;BME280;6580;42.680;23.324;2023-04-26T12:27:07;94318.75;;;19.89;35.58
13027;BME280;6580;42.680;23.324;2023-04-26T12:29:52;94304.19;;;20.13;35.53
13027;BME280;6580;42.680;23.324;2023-04-26T12:32:38;94306.69;;;19.69;36.25
13027;BME280;6580;42.680;23.324;2023-04-26T12:35:27;94310.66;;;19.66;36.87
13027;BME280;6580;42.680;23.324;2023-04-26T12:38:13;94314.44;;;19.54;35.72
13027;BME280;6580;42.680;23.324;2023-04-26T12:40:58;94302.69;;;18.38;37.09
13027;BME280;6580;42.680;23.324;2023-04-26T12:43:44;94317.03;;;18.49;37.62
13027;BME280;6580;42.680;23.324;2023-04-26T12:46:30;94318.75;;;18.62;37.45
13027;BME280;6580;42.680;23.324;2023-04-26T12:49:16;94318.56;;;18.45;37.87
13027;BME280;6580;42.680;23.324;2023-04-26T12:52:03;94307.94;;;18.33;38.87
13027;BME280;6580;42.680;23.324;2023-04-26T12:54:49;94304.78;;;18.00;39.70
13027;BME280;6580;42.680;23.324;2023-04-26T12:57:36;94318.94;;;17.95;38.75
13027;BME280;6580;42.680;23.324;2023-04-26T13:00:23;94317.38;;;18.41;37.75
13027;BME280;6580;42.680;23.324;2023-04-26T13:03:11;94312.97;;;18.29;38.01
13027;BME280;6580;42.680;23.324;2023-04-26T13:05:57;94318.06;;;18.37;37.55
13027;BME280;6580;42.680;23.324;2023-04-26T13:08:44;94316.41;;;18.65;38.22
13027;BME280;6580;42.680;23.324;2023-04-26T13:11:32;94332.06;;;18.28;40.11
13027;BME280;6580;42.680;23.324;2023-04-26T13:14:18;94327.34;;;17.63;39.88
13027;BME280;6580;42.680;23.324;2023-04-26T13:17:06;94336.59;;;17.00;41.89
13027;BME280;6580;42.680;23.324;2023-04-26T13:19:54;94347.78;;;16.97;41.96
13027;BME280;6580;42.680;23.324;2023-04-26T13:22:39;94344.84;;;16.68;42.26
13027;BME280;6580;42.680;23.324;2023-04-26T13:25:27;94350.31;;;16.48;42.90
13027;BME280;6580;42.680;23.324;2023-04-26T13:28:14;94356.09;;;16.89;42.66
13027;BME280;6580;42.680;23.324;2023-04-26T13:30:59;94350.50;;;16.10;38.69
13027;BME280;6580;42.680;23.324;2023-04-26T13:33:45;94359.88;;;15.75;41.56
13027;BME280;6580;42.680;23.324;2023-04-26T13:36:31;94372.44;;;16.00;42.05
13027;BME280;6580;42.680;23.324;2023-04-26T13:39:18;94374.34;;;15.74;41.95
13027;BME280;6580;42.680;23.324;2023-04-26T13:42:09;94367.84;;;16.07;41.97
13027;BME280;6580;42.680;23.324;2023-04-26T13:44:57;94380.44;;;16.13;42.83
13027;BME280;6580;42.680;23.324;2023-04-26T13:47:50;94382.97;;;15.95;44.07
13027;BME280;6580;42.680;23.324;2023-04-26T13:50:36;94376.91;;;16.13;43.58
13027;BME280;6580;42.680;23.324;2023-04-26T13:53:21;94386.28;;;15.97;44.30
13027;BME280;6580;42.680;23.324;2023-04-26T13:56:07;94386.38;;;16.34;44.05
13027;BME280;6580;42.680;23.324;2023-04-26T13:58:55;94377.44;;;15.71;43.65
13027;BME280;6580;42.680;23.324;2023-04-26T14:01:40;94390.81;;;15.90;44.29
13027;BME280;6580;42.680;23.324;2023-04-26T14:04:26;94396.00;;;15.92;44.63
13027;BME280;6580;42.680;23.324;2023-04-26T14:07:12;94386.69;;;15.94;44.45
13027;BME280;6580;42.680;23.324;2023-04-26T14:09:58;94397.81;;;16.04;44.96
13027;BME280;6580;42.680;23.324;2023-04-26T14:12:43;94396.03;;;15.66;45.22
13027;BME280;6580;42.680;23.324;2023-04-26T14:15:30;94410.09;;;15.55;45.27
13027;BME280;6580;42.680;23.324;2023-04-26T14:18:16;94410.50;;;15.32;45.72
13027;BME280;6580;42.680;23.324;2023-04-26T14:21:04;94409.47;;;15.46;46.64
13027;BME280;6580;42.680;23.324;2023-04-26T14:23:49;94423.91;;;15.71;45.78
13027;BME280;6580;42.680;23.324;2023-04-26T14:26:35;94423.09;;;15.71;46.94
13027;BME280;6580;42.680;23.324;2023-04-26T14:29:22;94432.97;;;15.70;46.29
13027;BME280;6580;42.680;23.324;2023-04-26T14:32:08;94425.69;;;14.87;48.11
13027;BME280;6580;42.680;23.324;2023-04-26T14:34:55;94441.50;;;14.62;49.13
13027;BME280;6580;42.680;23.324;2023-04-26T14:37:41;94430.44;;;14.98;48.79
13027;BME280;6580;42.680;23.324;2023-04-26T14:40:27;94442.84;;;15.12;48.82
13027;BME280;6580;42.680;23.324;2023-04-26T14:43:15;94449.66;;;15.08;48.94
13027;BME280;6580;42.680;23.324;2023-04-26T14:46:04;94424.16;;;14.58;49.82